Terminal Aerodrome Forecast
Issued by NWS

Home | Current Version | Previous Version | Text Only | Print | Product List | Glossary On
Versions: 1 2 3 4 5 6 7 8 9 10 11 12 13 14 15 16 17 18 19 20 21 22 23 24 25 26 27 28 29 30 31 32 33 34 35 36
000
FTUS46 KPQR 140016 AAA
TAFONP
TAF AMD
KONP 140016Z 1400/1424 20020G30KT 3SM -RA BR SCT009 BKN019 OVC025
     FM140500 22017G25KT 2SM RA BR OVC005
     FM141200 22014G22KT 3SM -RA BR SCT005 OVC012
     FM141800 22012G22KT 4SM -RA BR BKN012 OVC025=

USA.gov is the U.S. government's official web portal to all federal, state and local government web resources and services.